Time;durP1;ratioP1;P1;durP2;ratioP2;P2;SDS_P1;SDS_P2;PMS_P1;PMS_P2;Temp;Humidity;BMP_temperature;BMP_pressure;BME280_temperature;BME280_humidity;BME280_pressure;Samples;Min_cycle;Max_cycle;Signal;HPM_P1;HPM_P2
2022/10/07 04:45:20;;;;;;;;;;;18.70;92.70;;;;;;5107196;27;20315;-74
2022/10/07 04:47:46;;;;;;;;;;;18.60;93.10;;;;;;5117128;27;19918;-74
2022/10/07 04:50:13;;;;;;;;;;;18.70;93.30;;;;;;5120047;27;19919;-75
2022/10/07 04:52:41;;;;;;;;;;;18.60;93.50;;;;;;5106729;27;20094;-75
2022/10/07 04:55:09;;;;;;;;;;;18.50;93.70;;;;;;5114349;27;19912;-75
2022/10/07 04:57:36;;;;;;;;;;;18.60;94.00;;;;;;5114437;27;20340;-74
2022/10/07 05:00:03;;;;;;;;;;;18.60;94.30;;;;;;5122128;27;20399;-74
2022/10/07 05:02:30;;;;;;;;;;;18.50;94.50;;;;;;5118767;27;19964;-72
2022/10/07 05:04:56;;;;;;;;;;;18.50;94.70;;;;;;5111876;28;20461;-74
2022/10/07 05:07:23;;;;;;;;;;;18.40;94.80;;;;;;5105803;28;20016;-74
2022/10/07 05:09:50;;;;;;;;;;;18.40;94.90;;;;;;5104143;28;20392;-74
2022/10/07 05:12:16;;;;;;;;;;;18.30;94.80;;;;;;5101547;28;19992;-74
2022/10/07 05:14:43;;;;;;;;;;;18.30;95.00;;;;;;5109544;28;20387;-74
2022/10/07 05:17:10;;;;;;;;;;;18.20;95.10;;;;;;5103638;28;19942;-74
2022/10/07 05:19:36;;;;;;;;;;;18.20;95.20;;;;;;5107333;28;20008;-74
2022/10/07 05:22:03;;;;;;;;;;;18.20;95.30;;;;;;5108219;28;19907;-74
2022/10/07 05:24:30;;;;;;;;;;;18.20;95.40;;;;;;5111811;28;19911;-75
2022/10/07 05:26:57;;;;;;;;;;;18.10;95.40;;;;;;5111323;28;19923;-75
2022/10/07 05:29:23;;;;;;;;;;;18.10;95.40;;;;;;5103177;28;20396;-74
2022/10/07 05:31:50;;;;;;;;;;;18.00;95.60;;;;;;5111139;28;19959;-74
2022/10/07 05:34:17;;;;;;;;;;;18.00;95.60;;;;;;5111912;27;20293;-75
2022/10/07 05:36:44;;;;;;;;;;;18.00;95.70;;;;;;5093750;28;19912;-74
2022/10/07 05:39:11;;;;;;;;;;;18.00;95.90;;;;;;5113462;27;20654;-75
2022/10/07 05:41:41;;;;;;;;;;;18.10;96.10;;;;;;5094500;28;19927;-75
2022/10/07 05:44:07;;;;;;;;;;;18.00;96.10;;;;;;5114500;27;20018;-75
2022/10/07 05:46:34;;;;;;;;;;;17.90;95.90;;;;;;5120128;27;20016;-76
2022/10/07 05:49:02;;;;;;;;;;;18.00;96.10;;;;;;5113064;27;20061;-76
2022/10/07 05:51:28;;;;;;;;;;;18.00;96.20;;;;;;5092189;27;19912;-76
2022/10/07 05:53:55;;;;;;;;;;;17.90;96.20;;;;;;5110263;28;19920;-74
2022/10/07 05:56:22;;;;;;;;;;;17.90;96.30;;;;;;5111354;27;20439;-73
2022/10/07 05:58:49;;;;;;;;;;;17.90;96.30;;;;;;5092483;28;19957;-73
2022/10/07 06:01:17;;;;;;;;;;;17.90;96.40;;;;;;5112807;27;20258;-74
2022/10/07 06:03:47;;;;;;;;;;;17.90;96.40;;;;;;5110707;27;19912;-72
2022/10/07 06:06:22;;;;;;;;;;;17.90;96.50;;;;;;5108997;27;19908;-74
2022/10/07 06:08:49;;;;;;;;;;;17.80;96.30;;;;;;5107098;27;20365;-74
2022/10/07 06:14:01;;;;;;;;;;;17.70;96.30;;;;;;5106852;28;19926;-77
2022/10/07 06:16:28;;;;;;;;;;;17.80;96.50;;;;;;5110104;28;19919;-76
2022/10/07 06:18:55;;;;;;;;;;;17.80;96.50;;;;;;5106881;28;19933;-75
2022/10/07 06:21:28;;;;;;;;;;;17.80;96.50;;;;;;5108538;28;20381;-75
2022/10/07 06:23:55;;;;;;;;;;;17.70;96.60;;;;;;5103018;28;19912;-74
2022/10/07 06:26:22;;;;;;;;;;;17.80;96.70;;;;;;5107390;28;20267;-73
2022/10/07 06:28:49;;;;;;;;;;;17.70;96.70;;;;;;5093620;27;20330;-74
2022/10/07 06:31:16;;;;;;;;;;;17.70;96.80;;;;;;5106119;27;19919;-74
2022/10/07 06:33:48;;;;;;;;;;;17.70;96.80;;;;;;5111883;27;20499;-74
2022/10/07 06:36:16;;;;;;;;;;;17.70;96.80;;;;;;5109492;27;19915;-74
2022/10/07 06:38:43;;;;;;;;;;;17.70;96.90;;;;;;5106252;27;20010;-76
2022/10/07 06:41:10;;;;;;;;;;;17.70;96.90;;;;;;5102264;28;20384;-75
2022/10/07 06:43:36;;;;;;;;;;;17.70;96.90;;;;;;5110083;28;19923;-75
2022/10/07 06:46:04;;;;;;;;;;;17.70;96.90;;;;;;5106614;28;19982;-73
2022/10/07 06:48:31;;;;;;;;;;;17.70;96.90;;;;;;5098569;28;19912;-75
2022/10/07 06:50:58;;;;;;;;;;;17.70;96.90;;;;;;5087724;28;20004;-75
2022/10/07 06:53:25;;;;;;;;;;;17.70;96.90;;;;;;5106221;28;20290;-74
2022/10/07 06:55:58;;;;;;;;;;;17.70;97.00;;;;;;5109737;28;19947;-74
2022/10/07 06:58:27;;;;;;;;;;;17.60;97.00;;;;;;5090019;28;19914;-74
2022/10/07 07:00:53;;;;;;;;;;;17.60;97.00;;;;;;5108554;28;19923;-74
2022/10/07 07:03:20;;;;;;;;;;;17.60;97.10;;;;;;5108185;28;19916;-74
2022/10/07 07:05:47;;;;;;;;;;;17.60;97.00;;;;;;5106715;28;20397;-74
2022/10/07 07:08:16;;;;;;;;;;;17.60;97.00;;;;;;5109163;28;20201;-75
2022/10/07 07:10:43;;;;;;;;;;;17.60;96.90;;;;;;5118437;28;19908;-73
2022/10/07 07:13:09;;;;;;;;;;;17.50;96.80;;;;;;5107266;28;19927;-75
2022/10/07 07:15:36;;;;;;;;;;;17.50;96.80;;;;;;5121808;28;20026;-72
2022/10/07 07:18:03;;;;;;;;;;;17.50;97.00;;;;;;5117279;27;20011;-73
2022/10/07 07:20:36;;;;;;;;;;;17.40;96.90;;;;;;5116774;27;19919;-74
2022/10/07 07:23:04;;;;;;;;;;;17.50;97.10;;;;;;5105430;28;20695;-75
2022/10/07 07:25:31;;;;;;;;;;;17.50;97.00;;;;;;5112083;27;19916;-75
2022/10/07 07:28:03;;;;;;;;;;;17.40;97.00;;;;;;5115595;27;19996;-75
2022/10/07 07:30:30;;;;;;;;;;;17.30;97.00;;;;;;5122707;27;19915;-75
2022/10/07 07:32:57;;;;;;;;;;;17.40;97.00;;;;;;5125429;27;19919;-75
2022/10/07 07:35:24;;;;;;;;;;;17.40;97.10;;;;;;5114526;27;19934;-75
2022/10/07 07:37:51;;;;;;;;;;;17.30;97.00;;;;;;5126100;27;19911;-75
2022/10/07 07:40:18;;;;;;;;;;;17.40;97.10;;;;;;5111810;27;19927;-75
2022/10/07 07:42:45;;;;;;;;;;;17.40;97.10;;;;;;5116311;27;20076;-75
2022/10/07 07:45:11;;;;;;;;;;;17.40;97.10;;;;;;5108924;27;20369;-75
2022/10/07 07:47:38;;;;;;;;;;;17.30;97.10;;;;;;5102584;27;19923;-74
2022/10/07 07:50:05;;;;;;;;;;;17.40;97.20;;;;;;5116428;27;19912;-74
2022/10/07 07:52:32;;;;;;;;;;;17.30;97.10;;;;;;5114844;27;20700;-74
2022/10/07 07:55:01;;;;;;;;;;;17.30;97.10;;;;;;5119178;27;20365;-73
2022/10/07 07:57:31;;;;;;;;;;;17.40;97.20;;;;;;5092143;28;19992;-74
2022/10/07 08:00:01;;;;;;;;;;;17.30;97.10;;;;;;5103825;28;20016;-73
2022/10/07 08:02:28;;;;;;;;;;;17.30;97.20;;;;;;5111393;28;19996;-75
2022/10/07 08:04:54;;;;;;;;;;;17.30;97.10;;;;;;5112502;28;19968;-75
2022/10/07 08:07:21;;;;;;;;;;;17.30;97.10;;;;;;5113250;28;20280;-74
2022/10/07 08:09:48;;;;;;;;;;;17.30;97.10;;;;;;5113014;28;20388;-74
2022/10/07 08:12:15;;;;;;;;;;;17.20;97.10;;;;;;5113173;28;19907;-74
2022/10/07 08:14:42;;;;;;;;;;;17.30;97.20;;;;;;5110163;28;19924;-74
2022/10/07 08:17:08;;;;;;;;;;;17.30;97.20;;;;;;5109478;28;19939;-75
2022/10/07 23:20:28;;;;;;;;;;;20.10;91.40;;;;;;5061662;28;19935;-78
2022/10/07 23:22:55;;;;;;;;;;;20.20;91.50;;;;;;5106714;28;19928;-78
2022/10/07 23:25:23;;;;;;;;;;;20.30;91.10;;;;;;5089229;28;19925;-80
2022/10/07 23:27:49;;;;;;;;;;;20.30;90.90;;;;;;5127199;28;19915;-76
2022/10/07 23:30:16;;;;;;;;;;;20.40;90.60;;;;;;5118621;28;19941;-79
2022/10/07 23:32:44;;;;;;;;;;;20.40;89.50;;;;;;5125431;28;19957;-77
2022/10/07 23:35:11;;;;;;;;;;;20.40;89.60;;;;;;5091944;28;19942;-78
2022/10/07 23:37:38;;;;;;;;;;;20.50;89.20;;;;;;5113464;28;19912;-78
2022/10/07 23:40:05;;;;;;;;;;;20.50;89.20;;;;;;5121239;28;19967;-78
2022/10/07 23:42:31;;;;;;;;;;;20.50;88.90;;;;;;5115303;28;19934;-78
2022/10/07 23:45:00;;;;;;;;;;;20.50;88.40;;;;;;5101968;28;19947;-79
2022/10/07 23:47:27;;;;;;;;;;;20.50;88.30;;;;;;5118738;28;19912;-81
2022/10/07 23:49:53;;;;;;;;;;;20.50;87.90;;;;;;5111333;28;19984;-77
2022/10/07 23:52:20;;;;;;;;;;;20.40;87.50;;;;;;5111146;28;19946;-76
2022/10/07 23:54:47;;;;;;;;;;;20.50;87.70;;;;;;5110314;28;19919;-76
2022/10/07 23:57:14;;;;;;;;;;;20.50;87.50;;;;;;5094222;28;19969;-76
2022/10/07 23:59:40;;;;;;;;;;;20.50;87.50;;;;;;5114203;28;19966;-76
